サンパウロ/グアルーリョス の空港の天気 - METARとTAF

グアルーリョス国際空港 (サンパウロ) ( SBGR / GRU ) - ブラジル サンパウロ州サンパウロ市
飛行場実況気象(Metar)
観測時間08/17 08:00 BRT (08/17 11:00 UTC)
風向・風速東北東 5m/s
視程10km以上
天気現象
なし
気温13℃
湿度88%
気圧1023hPa
METARSBGR 171100Z 07009KT CAVOK 13/11 Q1023
過去の天気等 Google飛行場航空写真 Wunderground天気予報

過去48時間のMETAR

飛行場予報(TAF)
発表時間: 8/17 07:09 BRT (8/17 10:09 UTC)
予報対象時間: 17日9時 BRT ~ 18日15時 BRT
風向・風速北東 4m/s
視程10km以上
なし
17日10時 BRT ~ 17日12時 BRT に徐々に
風向・風速北北西 4m/s
17日18時 BRT ~ 17日20時 BRT に徐々に
風向・風速東北東 3m/s
18日4時 BRT から 確率 30% で
視程5000m
天気現象もや
18日9時 BRT ~ 18日11時 BRT に徐々に
風向・風速西北西 5m/s
18日12時 BRT ~ 18日14時 BRT に徐々に
全天の4割程度の雲 雲底高度 1370m
TAF SBGR 171009Z 1712/1818 05007KT CAVOK TN13/1809Z TX28/1817Z
BECMG 1713/1715 33007KT
BECMG 1721/1723 06005KT
PROB30 1807/1811 5000 BR
BECMG 1812/1814 30010KT
BECMG 1815/1817 SCT045 RMK PGN